Data for 10/30/2005

Time Sea-Level Adjusted Pressure Absolute Pressure Temperature Relative Humidity Dew Point   
(mb) (inHg) (mb) (inHg) (C) (F) (%) (C) (F)
00:05 1021 30.15 851 25.13 1.5 34.7 79 -1.7 28.9
00:10 1021 30.15 851 25.13 1.2 34.2 80 -1.9 28.6
00:15 1022 30.18 851 25.13 1.1 34 80 -2 28.4
00:20 1022 30.18 851 25.13 1.1 34.1 79 -2.1 28.1
00:25 1022 30.18 851 25.13 1.1 33.9 79 -2.2 28.1
00:30 1022 30.18 851 25.13 0.9 33.7 79 -2.3 27.8
00:35 1022 30.18 851 25.13 1.1 34 78 -2.4 27.7
00:40 1022 30.18 851 25.13 1.1 34 77 -2.5 27.6
00:45 1022 30.18 851 25.13 0.8 33.4 79 -2.4 27.7
00:50 1022 30.18 851 25.13 -0.2 31.6 84 -2.6 27.3
00:55 1022 30.18 851 25.13 -0.5 31 85 -2.8 27
01:00 1022 30.18 851 25.13 -0.4 31.3 83 -2.9 26.7
01:05 1022 30.18 851 25.13 -0.2 31.6 83 -2.7 27.1
01:10 1022 30.18 851 25.13 -0 32 81 -2.8 26.9
01:15 1022 30.18 851 25.13 0.3 32.5 80 -2.8 27
01:20 1022 30.18 851 25.13 0.3 32.5 80 -2.7 27.1
01:25 1022 30.18 851 25.13 0.2 32.3 82 -2.6 27.3
01:30 1022 30.18 851 25.13 -0 32 82 -2.8 27
01:35 1022 30.18 851 25.13 -0.4 31.3 84 -2.8 26.9
01:40 1022 30.18 851 25.13 -0.2 31.6 82 -2.9 26.8
01:45 1022 30.18 851 25.13 -0.1 31.8 82 -2.8 26.9
01:50 1022 30.18 851 25.13 0.1 32.2 81 -2.7 27.1
01:55 1022 30.18 851 25.13 0.3 32.6 81 -2.6 27.4
01:00 1022 30.18 851 25.13 0.3 32.6 81 -2.6 27.3
01:05 1022 30.18 851 25.13 0.2 32.3 80 -2.8 27
01:10 1022 30.18 851 25.13 0 32 81 -2.9 26.8
01:15 1022 30.18 851 25.13 0.2 32.3 80 -2.9 26.8
01:20 1022 30.18 851 25.13 0.3 32.5 79 -3 26.6
01:25 1022 30.18 851 25.13 0.3 32.5 79 -2.9 26.8
01:30 1022 30.18 851 25.13 0.4 32.6 79 -2.9 26.8
01:35 1022 30.18 851 25.13 0.3 32.6 79 -2.9 26.8
01:40 1022 30.18 851 25.13 0.4 32.7 79 -2.9 26.9
01:45 1022 30.18 851 25.13 0.4 32.8 78 -2.9 26.8
01:50 1022 30.18 851 25.13 0.4 32.8 78 -3 26.6
01:55 1022 30.18 852 25.16 0.5 32.8 78 -2.9 26.7
02:00 1022 30.18 852 25.16 0.4 32.7 79 -2.9 26.9
02:05 1022 30.18 852 25.16 0.4 32.7 78 -3 26.6
02:10 1022 30.18 852 25.16 0.5 33 77 -3.1 26.5
02:15 1022 30.18 852 25.16 0.7 33.3 77 -2.9 26.7
02:20 1022 30.18 852 25.16 0.8 33.4 77 -2.9 26.9
02:25 1022 30.18 852 25.16 0.8 33.5 76 -2.9 26.8
02:30 1022 30.18 852 25.16 0.8 33.5 76 -3 26.7
02:35 1022 30.18 852 25.16 0.6 33 78 -2.8 27
02:40 1022 30.18 852 25.16 0.4 32.8 79 -2.8 26.9
02:45 1022 30.18 852 25.16 0.4 32.7 81 -2.6 27.4
02:50 1022 30.18 852 25.16 0.3 32.5 81 -2.5 27.5
02:55 1022 30.18 852 25.16 0.3 32.6 81 -2.5 27.4
03:00 1022 30.18 852 25.16 0.4 32.8 81 -2.4 27.7
03:05 1023 30.21 852 25.16 0.4 32.6 82 -2.4 27.6
03:10 1023 30.21 852 25.16 0.5 32.9 80 -2.6 27.4
03:15 1023 30.21 852 25.16 0.7 33.2 79 -2.6 27.4
03:20 1023 30.21 852 25.16 0.8 33.4 79 -2.4 27.6
03:25 1023 30.21 852 25.16 0.5 32.9 81 -2.4 27.7
03:30 1023 30.21 852 25.16 0.5 32.8 80 -2.5 27.4
03:35 1023 30.21 852 25.16 0.6 33 80 -2.5 27.5
03:40 1023 30.21 852 25.16 0.7 33.3 79 -2.5 27.5
03:45 1023 30.21 852 25.16 0.6 33.1 81 -2.3 27.9
03:50 1023 30.21 852 25.16 0.5 32.9 82 -2.3 27.9
03:55 1023 30.21 852 25.16 0.7 33.2 81 -2.2 28.1
04:00 1023 30.21 852 25.16 0.6 33.1 81 -2.3 27.8
04:05 1023 30.21 852 25.16 0.6 33.1 82 -2.2 28.1
04:10 1023 30.21 852 25.16 0.5 32.8 83 -2.1 28.3
04:15 1023 30.21 852 25.16 0.5 32.9 83 -2.1 28.2
04:20 1023 30.21 852 25.16 0.6 33.1 82 -2.1 28.1
04:25 1023 30.21 852 25.16 0.7 33.3 82 -2 28.4
04:30 1023 30.21 852 25.16 0.7 33.3 80 -2.4 27.7
04:35 1023 30.21 852 25.16 1 33.8 79 -2.2 28.1
04:40 1023 30.21 852 25.16 1 33.9 80 -2 28.3
04:45 1023 30.21 852 25.16 0.9 33.7 81 -2 28.4
04:50 1023 30.21 852 25.16 0.9 33.7 78 -2.4 27.7
04:55 1023 30.21 852 25.16 1.1 34.1 78 -2.4 27.8
05:00 1023 30.21 853 25.19 1.2 34.2 77 -2.4 27.7
05:05 1023 30.21 853 25.19 1.4 34.5 77 -2.1 28.2
05:10 1023 30.21 853 25.19 1.4 34.5 76 -2.3 27.8
05:15 1023 30.21 853 25.19 1.5 34.8 75 -2.4 27.6
05:20 1023 30.21 853 25.19 1.4 34.5 77 -2.2 28
05:25 1023 30.21 853 25.19 1.1 33.9 78 -2.3 27.8
05:30 1023 30.21 853 25.19 1.1 34.1 76 -2.7 27.2
05:35 1024 30.24 853 25.19 1.4 34.6 73 -2.9 26.7
05:40 1024 30.24 853 25.19 1.6 34.9 70 -3.2 26.2
05:45 1024 30.24 853 25.19 1.8 35.2 69 -3.3 26
05:50 1024 30.24 853 25.19 1.9 35.3 69 -3.3 26.1
05:55 1024 30.24 853 25.19 1.9 35.5 69 -3.2 26.2
06:00 1024 30.24 853 25.19 2 35.6 68 -3.2 26.2
06:05 1024 30.24 853 25.19 2 35.6 69 -3.1 26.3
06:10 1024 30.24 853 25.19 2 35.7 69 -3 26.6
06:15 1024 30.24 853 25.19 1.8 35.2 73 -2.5 27.4
06:20 1024 30.24 853 25.19 1.4 34.6 74 -2.8 27
06:25 1024 30.24 853 25.19 1.6 34.8 73 -2.7 27.1
06:30 1024 30.24 853 25.19 1.7 35 71 -3 26.5
06:35 1024 30.24 853 25.19 1.7 35 74 -2.5 27.4
06:40 1024 30.24 853 25.19 1.2 34.1 77 -2.4 27.6
06:45 1024 30.24 853 25.19 1 33.8 76 -2.8 27
06:50 1024 30.24 853 25.19 1.1 33.9 76 -2.6 27.3
06:55 1024 30.24 853 25.19 1 33.7 77 -2.6 27.3
07:00 1024 30.24 853 25.19 0.8 33.4 77 -2.7 27.1
07:05 1024 30.24 853 25.19 0.8 33.4 77 -2.7 27.1
07:10 1024 30.24 853 25.19 0.7 33.2 78 -2.7 27.1
07:15 1024 30.24 853 25.19 0.7 33.2 77 -2.9 26.7
07:20 1024 30.24 853 25.19 0.8 33.5 76 -2.9 26.7
07:25 1024 30.24 853 25.19 0.9 33.7 76 -2.9 26.8
07:30 1024 30.24 853 25.19 0.9 33.7 76 -2.8 26.9
07:35 1024 30.24 853 25.19 0.9 33.7 77 -2.7 27.1
07:40 1024 30.24 853 25.19 0.8 33.5 76 -3 26.6
07:45 1024 30.24 853 25.19 1 33.8 74 -3.1 26.3
07:50 1024 30.24 853 25.19 1.2 34.2 75 -2.8 26.9
07:55 1024 30.24 853 25.19 1.4 34.4 75 -2.6 27.3
08:00 1024 30.24 853 25.19 1.3 34.4 75 -2.6 27.3
08:05 1024 30.24 854 25.22 1.3 34.4 75 -2.5 27.4
08:10 1024 30.24 854 25.22 1.3 34.4 74 -2.9 26.8
08:15 1024 30.24 854 25.22 1.3 34.3 74 -2.9 26.8
08:20 1025 30.27 854 25.22 1.3 34.4 73 -2.9 26.7
08:25 1025 30.27 854 25.22 1.5 34.6 73 -2.8 27
08:30 1025 30.27 854 25.22 1.5 34.7 73 -2.7 27.1
08:35 1025 30.27 854 25.22 1.6 34.9 73 -2.6 27.2
08:40 1025 30.27 854 25.22 1.6 34.9 73 -2.7 27.1
08:45 1025 30.27 854 25.22 1.2 34.2 76 -2.6 27.3
08:50 1025 30.27 854 25.22 1.2 34.2 75 -2.7 27.2
08:55 1025 30.27 854 25.22 1.4 34.5 74 -2.7 27.1
09:00 1025 30.27 854 25.22 1.7 35.1 72 -2.9 26.8
09:05 1025 30.27 854 25.22 2 35.7 70 -2.8 27
09:10 1025 30.27 854 25.22 2.1 35.7 70 -2.9 26.8
09:15 1025 30.27 854 25.22 2.1 35.8 71 -2.7 27.2
09:20 1025 30.27 854 25.22 2.5 36.5 69 -2.7 27.1
09:25 1025 30.27 854 25.22 2.8 37.1 69 -2.4 27.7
09:30 1025 30.27 854 25.22 2.5 36.4 68 -2.8 27
09:35 1025 30.27 854 25.22 3 37.4 67 -2.6 27.3
09:40 1025 30.27 854 25.22 3.6 38.4 65 -2.4 27.6
09:45 1025 30.27 854 25.22 3.7 38.7 65 -2.2 28
09:50 1025 30.27 854 25.22 4 39.1 59 -3.2 26.2
09:55 1025 30.27 855 25.25 4 39.3 61 -2.7 27.1
10:00 1025 30.27 855 25.25 3.8 38.9 64 -2.3 27.9
10:05 1025 30.27 855 25.25 3.5 38.3 64 -2.6 27.3
10:10 1025 30.27 855 25.25 3.3 38 65 -2.6 27.3
10:15 1025 30.27 855 25.25 3.4 38.2 65 -2.6 27.3
10:20 1025 30.27 855 25.25 3.6 38.5 65 -2.4 27.7
10:25 1025 30.27 855 25.25 3.6 38.4 65 -2.4 27.7
10:30 1026 30.3 855 25.25 3.5 38.4 66 -2.1 28.2
10:35 1026 30.3 855 25.25 3.8 38.8 64 -2.5 27.5
10:40 1026 30.3 855 25.25 4 39.3 63 -2.3 27.9
10:45 1026 30.3 855 25.25 4.1 39.3 63 -2.3 27.9
10:50 1026 30.3 855 25.25 3.7 38.7 64 -2.4 27.7
10:55 1026 30.3 855 25.25 3.6 38.5 65 -2.3 27.8
11:00 1026 30.3 855 25.25 3.7 38.7 65 -2.2 28.1
11:05 1026 30.3 855 25.25 3.8 38.9 64 -2.3 27.8
11:10 1026 30.3 855 25.25 4.2 39.6 63 -2.2 28.1
11:15 1026 30.3 855 25.25 4.5 40.1 63 -2 28.4
11:20 1026 30.3 855 25.25 4.7 40.4 62 -1.9 28.6
11:25 1026 30.3 855 25.25 4.7 40.5 61 -2.1 28.2
11:30 1026 30.3 855 25.25 4.8 40.7 60 -2.2 28
11:35 1026 30.3 855 25.25 5 41.1 59 -2.3 27.8
11:40 1026 30.3 855 25.25 5.7 42.3 55 -2.6 27.3
11:45 1025 30.27 855 25.25 6.8 44.3 55 -1.5 29.3
11:50 1025 30.27 855 25.25 7 44.6 53 -1.9 28.5
11:55 1025 30.27 855 25.25 6.8 44.3 51 -2.5 27.6
12:00 1025 30.27 855 25.25 7 44.6 49 -3.1 26.4
12:05 1025 30.27 855 25.25 7 44.6 46 -3.8 25.1
12:10 1025 30.27 855 25.25 6.8 44.3 41 -5.6 21.9
12:15 1025 30.27 855 25.25 7.1 44.7 39 -6 21.2
12:20 1025 30.27 855 25.25 6.8 44.3 41 -5.6 22
12:25 1025 30.27 855 25.25 6.9 44.3 40 -5.7 21.8
12:30 1025 30.27 855 25.25 7.1 44.7 38 -6.1 21
12:35 1025 30.27 855 25.25 7.4 45.4 38 -6 21.2
12:40 1025 30.27 855 25.25 7.6 45.7 39 -5.6 22
12:45 1025 30.27 855 25.25 7.7 45.9 37 -5.9 21.4
12:50 1025 30.27 854 25.22 7.4 45.3 36 -6.9 19.6
12:55 1025 30.27 854 25.22 7.9 46.2 34 -7.1 19.3
13:00 1025 30.27 854 25.22 8.3 46.9 33 -7.1 19.2
13:05 1025 30.27 854 25.22 7.7 45.9 34 -7.1 19.3
13:10 1025 30.27 855 25.25 7.3 45.1 35 -7.1 19.3
13:15 1025 30.27 854 25.22 7.2 44.9 37 -6.4 20.4
13:20 1025 30.27 854 25.22 6.8 44.3 39 -6.2 20.8
13:25 1025 30.27 854 25.22 6.6 43.9 39 -6.5 20.3
13:30 1025 30.27 854 25.22 6.4 43.6 40 -6.2 20.8
13:35 1025 30.27 854 25.22 7.2 45 38 -6 21.1
13:40 1025 30.27 854 25.22 7.8 46 35 -6.6 20.1
13:45 1025 30.27 854 25.22 7.7 45.9 35 -6.9 19.6
13:50 1025 30.27 854 25.22 7.5 45.6 34 -7.4 18.7
13:55 1025 30.27 854 25.22 7.5 45.5 34 -7.3 18.9
14:00 1025 30.27 854 25.22 8 46.4 33 -7.4 18.8
14:05 1025 30.27 854 25.22 8.1 46.6 34 -7 19.4
14:10 1025 30.27 854 25.22 8.2 46.8 32 -7.4 18.6
14:15 1025 30.27 855 25.25 7.9 46.1 33 -7.2 19
14:20 1025 30.27 854 25.22 7.9 46.2 34 -7.1 19.1
14:25 1025 30.27 855 25.25 7.8 46.1 34 -7 19.3
14:30 1025 30.27 855 25.25 7.9 46.2 33 -7.2 19
14:35 1025 30.27 855 25.25 7.9 46.3 34 -7.1 19.2
14:40 1025 30.27 855 25.25 8.1 46.6 34 -6.8 19.8
14:45 1025 30.27 855 25.25 8 46.4 33 -7.3 18.9
14:50 1025 30.27 855 25.25 8.6 47.5 32 -7.2 19
14:55 1025 30.27 855 25.25 8.5 47.4 31 -7.5 18.4
15:00 1025 30.27 855 25.25 8.1 46.6 31 -7.8 17.9
15:05 1025 30.27 855 25.25 8.3 46.9 32 -7.5 18.5
15:10 1025 30.27 855 25.25 8.9 48 31 -7.5 18.5
15:15 1026 30.3 855 25.25 8.9 48 32 -7.1 19.3
15:20 1026 30.3 855 25.25 8.8 47.9 31 -7.4 18.6
15:25 1026 30.3 855 25.25 8.2 46.7 31 -8.1 17.5
15:30 1026 30.3 855 25.25 8.2 46.8 32 -7.6 18.3
15:35 1026 30.3 855 25.25 8.4 47 30 -8 17.6
15:40 1026 30.3 855 25.25 8.4 47.2 30 -8.3 17
15:45 1026 30.3 855 25.25 8.5 47.2 30 -8.1 17.5
15:50 1026 30.3 855 25.25 8.6 47.5 30 -8 17.7
15:55 1026 30.3 855 25.25 8.5 47.2 29 -8.4 16.9
16:00 1026 30.3 855 25.25 8.5 47.2 30 -8.1 17.4
16:05 1026 30.3 855 25.25 8.5 47.2 31 -7.8 17.9
16:10 1026 30.3 855 25.25 8.3 46.9 31 -8 17.6
16:15 1026 30.3 855 25.25 7.5 45.5 33 -7.8 17.9
16:20 1026 30.3 855 25.25 7.2 45 34 -7.7 18.1
16:25 1026 30.3 855 25.25 7.1 44.7 35 -7.5 18.4
16:30 1026 30.3 855 25.25 7.3 45.2 33 -7.8 18
16:35 1026 30.3 855 25.25 7.7 45.9 34 -7.3 18.9
16:40 1026 30.3 855 25.25 7.9 46.2 34 -7 19.3
16:45 1026 30.3 855 25.25 7.7 45.9 34 -7.2 19
16:50 1026 30.3 855 25.25 7.3 45.1 34 -7.5 18.4
16:55 1026 30.3 855 25.25 7 44.6 35 -7.6 18.4
17:00 1026 30.3 855 25.25 6.8 44.2 36 -7.2 19
17:05 1026 30.3 855 25.25 6.6 43.9 38 -6.9 19.6
17:10 1026 30.3 855 25.25 6.3 43.3 39 -6.6 20
17:15 1026 30.3 855 25.25 6.1 43 39 -6.9 19.6
17:20 1026 30.3 855 25.25 5.9 42.6 39 -7 19.3
17:25 1026 30.3 855 25.25 5.7 42.3 39 -7.2 19.1
17:30 1026 30.3 855 25.25 5.6 42.1 39 -7.4 18.7
17:35 1026 30.3 855 25.25 5.5 41.8 39 -7.4 18.7
17:40 1026 30.3 855 25.25 5.4 41.6 40 -7.2 19
17:45 1026 30.3 855 25.25 5.2 41.3 42 -6.8 19.8
17:50 1026 30.3 855 25.25 4.9 40.9 43 -6.7 20
17:55 1026 30.3 856 25.28 4.7 40.5 44 -6.5 20.3
18:00 1026 30.3 856 25.28 4.5 40.1 45 -6.4 20.4
18:05 1026 30.3 856 25.28 4.3 39.7 45 -6.6 20.1
18:10 1026 30.3 856 25.28 4.1 39.3 46 -6.6 20.1
18:15 1027 30.33 856 25.28 3.8 38.9 48 -6.3 20.7
18:20 1027 30.33 856 25.28 3.3 37.9 51 -5.9 21.4
18:25 1027 30.33 856 25.28 2.6 36.7 52 -6.3 20.7
18:30 1027 30.33 856 25.28 2.5 36.5 51 -6.7 19.9
18:35 1027 30.33 856 25.28 2.3 36.2 53 -6.2 20.8
18:40 1027 30.33 856 25.28 2.2 36 52 -6.7 19.9
18:45 1027 30.33 856 25.28 2.2 35.9 54 -6.3 20.7
18:50 1027 30.33 856 25.28 2 35.6 54 -6.3 20.6
18:55 1027 30.33 856 25.28 2.2 35.9 53 -6.5 20.3
19:00 1027 30.33 856 25.28 2.4 36.3 50 -6.9 19.6
19:05 1027 30.33 856 25.28 2.7 36.8 49 -6.9 19.6
19:10 1027 30.33 856 25.28 2.9 37.2 48 -7 19.4
19:15 1027 30.33 856 25.28 2.9 37.3 49 -6.8 19.7
19:20 1027 30.33 856 25.28 2.9 37.2 49 -6.8 19.8
19:25 1027 30.33 856 25.28 2.9 37.2 47 -7.2 19
19:30 1027 30.33 856 25.28 3.2 37.8 46 -7.3 18.8
19:35 1027 30.33 856 25.28 3.4 38.1 45 -7.4 18.7
19:40 1027 30.33 856 25.28 3.4 38.1 46 -7.2 19
19:45 1027 30.33 856 25.28 3.4 38.1 46 -7.3 18.9
19:50 1027 30.33 856 25.28 3.2 37.8 45 -7.5 18.6
19:55 1027 30.33 857 25.31 3.1 37.5 47 -7.3 18.9
20:00 1027 30.33 857 25.31 3 37.3 47 -7.4 18.7
20:05 1027 30.33 857 25.31 2.9 37.2 47 -7.3 18.9
20:10 1027 30.33 857 25.31 2.6 36.7 49 -7.1 19.3
20:15 1027 30.33 857 25.31 2 35.6 51 -7 19.4
20:20 1027 30.33 857 25.31 1.6 34.8 54 -6.9 19.6
20:25 1027 30.33 857 25.31 1.3 34.3 55 -6.8 19.8
20:30 1027 30.33 857 25.31 1 33.8 56 -6.7 19.9
20:35 1027 30.33 857 25.31 1.2 34.2 54 -7.1 19.3
20:40 1028 30.36 857 25.31 1.4 34.5 54 -6.9 19.6
20:45 1028 30.36 857 25.31 1 33.9 56 -6.8 19.7
20:50 1028 30.36 857 25.31 1 33.8 55 -7 19.4
20:55 1028 30.36 857 25.31 1.2 34.1 55 -6.8 19.7
21:00 1028 30.36 857 25.31 1.2 34.2 56 -6.7 20
21:05 1028 30.36 857 25.31 1.3 34.4 55 -6.8 19.8
21:10 1028 30.36 857 25.31 1.4 34.6 55 -6.7 19.9
21:15 1028 30.36 857 25.31 1.3 34.3 57 -6.3 20.6
21:20 1028 30.36 857 25.31 0.6 33.1 59 -6.4 20.4
21:25 1028 30.36 857 25.31 0.4 32.8 60 -6.4 20.4
21:30 1028 30.36 857 25.31 0.6 33 61 -6.2 20.9
21:35 1028 30.36 857 25.31 0.6 33.2 58 -6.7 20
21:40 1028 30.36 857 25.31 0.7 33.3 57 -6.8 19.7
21:45 1028 30.36 857 25.31 1.1 34 55 -6.9 19.6
21:50 1028 30.36 857 25.31 1.3 34.4 55 -6.6 20
21:55 1028 30.36 857 25.31 1 33.8 57 -6.7 20
22:00 1028 30.36 857 25.31 0.6 33.1 59 -6.5 20.3
22:05 1028 30.36 857 25.31 0.5 32.9 60 -6.4 20.4
22:10 1028 30.36 857 25.31 0.7 33.2 60 -6.3 20.6
22:15 1028 30.36 857 25.31 0.7 33.3 60 -6.1 20.9
22:20 1028 30.36 857 25.31 0.8 33.4 56 -7.1 19.2
22:25 1028 30.36 857 25.31 1.2 34.1 57 -6.5 20.3
22:30 1028 30.36 857 25.31 0.7 33.2 58 -6.6 20.1
22:35 1028 30.36 857 25.31 0.3 32.6 62 -6.1 21
22:40 1028 30.36 857 25.31 -0.1 31.8 61 -6.7 20
22:45 1028 30.36 857 25.31 -0.2 31.7 63 -6.5 20.3
22:50 1028 30.36 857 25.31 -0.5 31.2 65 -6.2 20.8
22:55 1028 30.36 857 25.31 -0.6 30.9 65 -6.3 20.6
23:00 1028 30.36 857 25.31 -0.6 31 64 -6.5 20.4
23:05 1028 30.36 857 25.31 -0.4 31.3 64 -6.4 20.5
23:10 1028 30.36 857 25.31 -0.2 31.6 62 -6.6 20.1
23:15 1028 30.36 857 25.31 0.1 32.1 59 -7 19.4
23:20 1028 30.36 857 25.31 0.3 32.5 59 -6.7 19.9
23:25 1028 30.36 857 25.31 0.1 32.1 60 -6.7 19.9
23:30 1028 30.36 857 25.31 -0.3 31.5 62 -6.7 19.9
23:35 1028 30.36 857 25.31 -0.8 30.6 66 -6.4 20.5
23:40 1028 30.36 857 25.31 -1.3 29.6 69 -6.3 20.7
23:45 1028 30.36 857 25.31 -1.3 29.6 67 -6.7 20
23:50 1028 30.36 857 25.31 -0.9 30.5 65 -6.6 20.1
23:55 1028 30.36 857 25.31 -0.1 31.8 61 -6.7 20
24:00 1028 30.36 857 25.31 -0.7 30.8 66 -6.3 20.6